createdAt,value
2024-01-25T00:01:59.862Z,27.02
2024-01-25T00:04:26.879Z,28.58
2024-01-25T00:06:59.865Z,26.73
2024-01-25T00:09:33.958Z,26.85
2024-01-25T00:12:00.798Z,37.58
2024-01-25T00:14:33.854Z,31.00
2024-01-25T00:17:06.776Z,31.23
2024-01-25T00:19:35.652Z,34.55
2024-01-25T00:22:08.894Z,33.05
2024-01-25T00:24:35.787Z,34.55
2024-01-25T00:27:03.863Z,34.47
2024-01-25T00:29:38.815Z,25.45
2024-01-25T00:32:06.112Z,29.20
2024-01-25T00:34:39.920Z,26.80
2024-01-25T00:37:13.943Z,24.52
2024-01-25T00:39:47.918Z,38.30
2024-01-25T00:42:15.768Z,22.17
2024-01-25T00:44:42.968Z,27.50
2024-01-25T00:47:17.887Z,26.33
2024-01-25T00:49:51.996Z,20.98
2024-01-25T00:52:19.148Z,20.38
2024-01-25T00:54:52.889Z,24.60
2024-01-25T00:57:27.067Z,26.75
2024-01-25T00:59:54.232Z,23.00
2024-01-25T01:02:23.680Z,19.38
2024-01-25T01:04:56.948Z,30.55
2024-01-25T01:07:24.414Z,27.52
2024-01-25T01:09:57.952Z,30.85
2024-01-25T01:12:24.659Z,32.40
2024-01-25T01:14:57.892Z,38.10
2024-01-25T01:17:31.089Z,33.65
2024-01-25T01:20:05.304Z,34.67
2024-01-25T01:22:32.117Z,38.33
2024-01-25T01:24:58.883Z,37.85
2024-01-25T01:27:31.981Z,26.08
2024-01-25T01:29:59.218Z,27.33
2024-01-25T01:32:32.958Z,29.30
2024-01-25T01:35:07.114Z,30.35
2024-01-25T01:37:33.891Z,33.90
2024-01-25T01:40:07.998Z,28.33
2024-01-25T01:42:41.094Z,28.02
2024-01-25T01:45:14.964Z,32.30
2024-01-25T01:47:42.421Z,26.88
2024-01-25T01:50:10.913Z,29.73
2024-01-25T01:52:44.953Z,32.90
2024-01-25T01:55:19.096Z,23.75
2024-01-25T01:57:47.955Z,26.75
2024-01-25T02:00:24.358Z,22.90
2024-01-25T02:02:51.370Z,20.52
2024-01-25T02:05:18.335Z,20.48
2024-01-25T02:07:52.296Z,29.85
2024-01-25T02:10:19.188Z,29.42
2024-01-25T02:12:52.093Z,34.45
2024-01-25T02:15:19.152Z,29.38
2024-01-25T02:17:46.097Z,20.40
2024-01-25T02:20:19.177Z,22.65
2024-01-25T02:22:53.003Z,18.00
2024-01-25T02:25:26.038Z,24.00
2024-01-25T02:27:52.891Z,21.95
2024-01-25T02:30:26.095Z,21.48
2024-01-25T02:33:00.247Z,18.90
2024-01-25T02:35:34.169Z,13.02
2024-01-25T02:38:07.145Z,16.95
2024-01-25T02:40:40.109Z,18.48
2024-01-25T02:43:06.892Z,13.90
2024-01-25T02:45:33.843Z,14.30
2024-01-25T02:48:09.221Z,13.25
2024-01-25T02:50:36.083Z,12.43
2024-01-25T02:53:10.014Z,10.13
2024-01-25T02:55:36.703Z,9.20
2024-01-25T02:58:11.172Z,10.70
2024-01-25T03:00:44.208Z,14.82
2024-01-25T03:03:11.060Z,12.45
2024-01-25T03:05:37.989Z,12.02
2024-01-25T03:08:12.130Z,12.07
2024-01-25T03:10:45.072Z,24.90
2024-01-25T03:13:11.794Z,14.18
2024-01-25T03:15:45.243Z,16.42
2024-01-25T03:18:12.832Z,15.55
2024-01-25T03:20:46.093Z,17.95
2024-01-25T03:23:12.896Z,22.88
2024-01-25T03:25:39.604Z,18.60
2024-01-25T03:28:14.236Z,14.93
2024-01-25T03:30:48.176Z,13.50
2024-01-25T03:33:15.053Z,10.23
2024-01-25T03:35:41.844Z,6.43
2024-01-25T03:38:15.148Z,7.93
2024-01-25T03:40:43.204Z,6.47
2024-01-25T03:43:20.764Z,7.20
2024-01-25T03:45:51.576Z,10.75
2024-01-25T03:48:25.230Z,6.50
2024-01-25T03:50:58.173Z,7.68
2024-01-25T03:53:25.284Z,6.60
2024-01-25T03:55:58.160Z,5.07
2024-01-25T03:58:25.108Z,9.45
2024-01-25T04:00:52.027Z,11.80
2024-01-25T04:03:25.208Z,9.48
2024-01-25T04:05:52.097Z,9.02
2024-01-25T04:08:18.954Z,8.50
2024-01-25T04:10:52.166Z,11.48
2024-01-25T04:13:18.962Z,10.23
2024-01-25T04:15:45.860Z,10.05
2024-01-25T04:18:25.394Z,8.45
2024-01-25T04:20:52.272Z,8.68
2024-01-25T04:23:26.335Z,6.72
2024-01-25T04:25:53.493Z,10.48
2024-01-25T04:28:20.551Z,7.45
2024-01-25T04:30:54.275Z,8.60
2024-01-25T04:33:21.841Z,8.63
2024-01-25T04:35:55.262Z,7.13
2024-01-25T04:38:21.986Z,7.68
2024-01-25T04:40:55.266Z,8.48
2024-01-25T04:43:22.041Z,11.43
2024-01-25T04:45:55.232Z,7.78
2024-01-25T04:48:28.407Z,16.92
2024-01-25T04:50:55.446Z,14.55
2024-01-25T04:53:28.240Z,13.23
2024-01-25T04:55:56.325Z,8.93
2024-01-25T04:58:30.254Z,7.25
2024-01-25T05:00:57.226Z,10.00
2024-01-25T05:03:30.487Z,10.45
2024-01-25T05:05:57.595Z,8.60
2024-01-25T05:08:31.331Z,6.68
2024-01-25T05:10:58.545Z,7.47
2024-01-25T05:13:25.396Z,8.57
2024-01-25T05:15:58.407Z,9.10
2024-01-25T05:18:25.285Z,11.68
2024-01-25T05:20:52.064Z,15.60
2024-01-25T05:23:25.431Z,28.63
2024-01-25T05:25:52.216Z,22.42
2024-01-25T05:28:25.350Z,12.55
2024-01-25T05:30:58.396Z,24.17
2024-01-25T05:33:25.241Z,24.25
2024-01-25T05:35:51.985Z,27.48
2024-01-25T05:38:25.319Z,17.88
2024-01-25T05:40:52.047Z,13.05
2024-01-25T05:43:26.388Z,11.27
2024-01-25T05:45:53.290Z,13.15
2024-01-25T05:48:26.385Z,19.42
2024-01-25T05:50:53.193Z,27.08
2024-01-25T05:53:27.393Z,24.25
2024-01-25T05:56:00.342Z,26.42
2024-01-25T05:58:33.448Z,20.98
2024-01-25T06:01:08.437Z,23.80
2024-01-25T06:03:41.470Z,24.08
2024-01-25T06:06:11.358Z,28.00
2024-01-25T06:08:49.329Z,36.17
2024-01-25T06:11:21.588Z,27.45
2024-01-25T06:13:54.473Z,34.65
2024-01-25T06:16:21.439Z,17.48
2024-01-25T06:18:49.004Z,25.20
2024-01-25T06:21:22.437Z,27.88
2024-01-25T06:23:49.272Z,18.38
2024-01-25T06:26:22.396Z,20.33
2024-01-25T06:28:49.239Z,19.38
2024-01-25T06:31:22.486Z,16.80
2024-01-25T06:33:52.036Z,14.85
2024-01-25T06:36:26.463Z,13.50
2024-01-25T06:38:53.391Z,10.07
2024-01-25T06:41:26.523Z,17.88
2024-01-25T06:43:53.248Z,29.23
2024-01-25T06:46:26.443Z,35.25
2024-01-25T06:48:53.738Z,29.50
2024-01-25T06:51:27.461Z,28.98
2024-01-25T06:53:54.908Z,27.45
2024-01-25T06:56:21.742Z,25.60
2024-01-25T06:58:55.423Z,22.13
2024-01-25T07:01:23.718Z,24.33
2024-01-25T07:03:58.612Z,13.43
2024-01-25T07:06:33.555Z,25.02
2024-01-25T07:09:06.495Z,28.20
2024-01-25T07:11:39.489Z,23.27
2024-01-25T07:14:12.509Z,22.20
2024-01-25T07:16:39.506Z,23.05
2024-01-25T07:19:12.626Z,18.25
2024-01-25T07:21:41.583Z,11.52
2024-01-25T07:24:22.534Z,13.82
2024-01-25T07:26:49.336Z,11.75
2024-01-25T07:29:16.092Z,15.63
2024-01-25T07:31:49.533Z,8.00
2024-01-25T07:34:16.596Z,11.48
2024-01-25T07:36:50.605Z,22.92
2024-01-25T07:39:19.084Z,18.13
2024-01-25T07:41:52.554Z,15.75
2024-01-25T07:44:20.758Z,17.60
2024-01-25T07:46:54.564Z,11.93
2024-01-25T07:49:27.627Z,11.60
2024-01-25T07:52:00.565Z,12.05
2024-01-25T07:54:27.460Z,31.80
2024-01-25T07:57:00.554Z,29.50
2024-01-25T07:59:33.509Z,27.42
2024-01-25T08:02:00.546Z,35.17
2024-01-25T08:04:33.662Z,39.33
2024-01-25T08:07:06.738Z,26.80
2024-01-25T08:09:40.644Z,26.55
2024-01-25T08:12:14.525Z,15.77
2024-01-25T08:14:47.534Z,19.30
2024-01-25T08:17:14.339Z,17.70
2024-01-25T08:19:49.680Z,31.10
2024-01-25T08:22:21.051Z,32.17
2024-01-25T08:24:56.570Z,31.02
2024-01-25T08:27:29.632Z,40.20
2024-01-25T08:30:02.650Z,26.73
2024-01-25T08:32:35.699Z,22.80
2024-01-25T08:35:02.583Z,15.80
2024-01-25T08:37:29.562Z,13.52
2024-01-25T08:40:02.632Z,11.70
2024-01-25T08:42:29.369Z,9.18
2024-01-25T08:45:02.597Z,10.98
2024-01-25T08:47:29.565Z,18.50
2024-01-25T08:50:02.742Z,30.10
2024-01-25T08:52:29.833Z,27.85
2024-01-25T08:55:03.650Z,39.30
2024-01-25T08:57:36.664Z,28.08
2024-01-25T09:00:09.777Z,24.58
2024-01-25T09:02:42.612Z,15.90
2024-01-25T09:05:10.156Z,15.55
2024-01-25T09:07:37.362Z,11.85
2024-01-25T09:10:12.721Z,9.68
2024-01-25T09:12:40.526Z,12.38
2024-01-25T09:15:15.703Z,21.17
2024-01-25T09:17:42.576Z,17.60
2024-01-25T09:20:10.237Z,28.40
2024-01-25T09:22:43.706Z,15.75
2024-01-25T09:25:16.745Z,13.48
2024-01-25T09:27:43.751Z,11.45
2024-01-25T09:30:17.659Z,9.43
2024-01-25T09:32:51.719Z,9.10
2024-01-25T09:35:19.074Z,10.57
2024-01-25T09:37:52.669Z,4.97
2024-01-25T09:40:23.711Z,9.95
2024-01-25T09:42:58.710Z,8.73
2024-01-25T09:45:25.564Z,14.02
2024-01-25T09:47:59.810Z,18.70
2024-01-25T09:50:26.867Z,9.68
2024-01-25T09:53:07.771Z,12.07
2024-01-25T09:55:39.946Z,9.10
2024-01-25T09:58:15.802Z,10.77
2024-01-25T10:00:44.351Z,9.48
2024-01-25T10:03:11.206Z,12.93
2024-01-25T10:05:44.820Z,5.45
2024-01-25T10:08:15.823Z,4.85
2024-01-25T10:10:48.724Z,4.88
2024-01-25T10:13:15.618Z,7.57
2024-01-25T10:15:49.786Z,13.95
2024-01-25T10:18:29.333Z,20.60
2024-01-25T10:20:57.745Z,14.25
2024-01-25T10:23:32.899Z,27.75
2024-01-25T10:26:00.028Z,13.27
2024-01-25T10:28:35.862Z,13.68
2024-01-25T10:31:05.501Z,17.83
2024-01-25T10:33:38.903Z,12.07
2024-01-25T10:36:09.245Z,12.48
2024-01-25T10:38:51.757Z,11.05
2024-01-25T10:41:21.230Z,9.82
2024-01-25T10:43:48.654Z,14.43
2024-01-25T10:46:22.936Z,22.92
2024-01-25T10:48:51.524Z,18.48
2024-01-25T10:51:25.786Z,18.77
2024-01-25T10:53:59.858Z,18.48
2024-01-25T10:56:33.816Z,16.58
2024-01-25T10:59:01.212Z,20.52
2024-01-25T11:01:38.150Z,13.43
2024-01-25T11:04:14.325Z,14.88
2024-01-25T11:06:47.942Z,16.80
2024-01-25T11:09:22.590Z,13.45
2024-01-25T11:11:56.902Z,14.75
2024-01-25T11:14:32.807Z,15.50
2024-01-25T11:16:59.559Z,11.20
2024-01-25T11:19:32.928Z,9.85
2024-01-25T11:22:04.762Z,9.90
2024-01-25T11:24:44.927Z,8.52
2024-01-25T11:27:12.358Z,8.32
2024-01-25T11:29:47.916Z,15.65
2024-01-25T11:32:14.728Z,21.63
2024-01-25T11:34:48.043Z,23.67
2024-01-25T11:37:20.905Z,17.40
2024-01-25T11:39:54.863Z,11.95
2024-01-25T11:42:21.668Z,9.82
2024-01-25T11:44:48.678Z,7.35
2024-01-25T11:47:21.923Z,8.82
2024-01-25T11:49:55.081Z,7.85
2024-01-25T11:52:35.936Z,10.88
2024-01-25T11:55:10.292Z,11.85
2024-01-25T11:57:45.968Z,9.20
2024-01-25T12:00:23.975Z,18.02
2024-01-25T12:02:50.799Z,21.13
2024-01-25T12:05:24.213Z,22.08
2024-01-25T12:07:51.384Z,19.35
2024-01-25T12:10:19.155Z,15.15
2024-01-25T12:12:52.933Z,26.10
2024-01-25T12:15:25.925Z,22.27
2024-01-25T12:17:52.785Z,18.00
2024-01-25T12:20:26.143Z,13.75
2024-01-25T12:22:53.612Z,13.73
2024-01-25T12:25:20.562Z,13.50
2024-01-25T12:27:56.999Z,14.85
2024-01-25T12:30:23.836Z,15.43
2024-01-25T12:32:57.301Z,21.58
2024-01-25T12:35:24.239Z,17.30
2024-01-25T12:37:57.938Z,29.05
2024-01-25T12:40:24.779Z,23.05
2024-01-25T12:42:51.890Z,16.85
2024-01-25T12:45:25.971Z,12.77
2024-01-25T12:47:52.825Z,14.88
2024-01-25T12:50:25.993Z,8.00
2024-01-25T12:52:52.929Z,12.82
2024-01-25T12:55:26.038Z,14.50
2024-01-25T12:57:54.723Z,13.35
2024-01-25T13:00:30.081Z,18.25
2024-01-25T13:02:57.881Z,12.45
2024-01-25T13:05:32.082Z,14.00
2024-01-25T13:07:58.919Z,12.65
2024-01-25T13:10:25.716Z,9.70
2024-01-25T13:12:59.028Z,8.75
2024-01-25T13:15:26.038Z,26.55
2024-01-25T13:17:59.095Z,10.93
2024-01-25T13:20:32.025Z,13.20
2024-01-25T13:22:58.760Z,15.30
2024-01-25T13:25:32.028Z,11.23
2024-01-25T13:27:58.827Z,13.05
2024-01-25T13:30:32.066Z,10.60
2024-01-25T13:32:58.972Z,12.85
2024-01-25T13:35:25.764Z,15.85
2024-01-25T13:37:59.052Z,13.95
2024-01-25T13:40:25.765Z,17.63
2024-01-25T13:42:59.049Z,19.27
2024-01-25T13:45:25.844Z,21.48
2024-01-25T13:47:59.362Z,24.48
2024-01-25T13:50:26.205Z,21.42
2024-01-25T13:52:52.965Z,17.33
2024-01-25T13:55:26.113Z,15.32
2024-01-25T13:57:52.965Z,25.60
2024-01-25T14:00:26.172Z,21.48
2024-01-25T14:02:52.953Z,19.08
2024-01-25T14:05:26.154Z,14.02
2024-01-25T14:07:53.039Z,15.23
2024-01-25T14:10:28.120Z,19.05
2024-01-25T14:13:03.132Z,13.80
2024-01-25T14:15:29.925Z,17.20
2024-01-25T14:18:03.308Z,18.00
2024-01-25T14:20:30.233Z,14.55
2024-01-25T14:23:04.209Z,12.73
2024-01-25T14:25:31.140Z,13.63
2024-01-25T14:27:58.750Z,11.57
2024-01-25T14:30:33.240Z,10.40
2024-01-25T14:33:00.415Z,10.25
2024-01-25T14:35:29.672Z,10.43
2024-01-25T14:38:04.334Z,10.00
2024-01-25T14:40:49.723Z,5.63
2024-01-25T14:43:30.172Z,7.95
2024-01-25T14:45:57.018Z,7.03
2024-01-25T14:48:23.969Z,7.65
2024-01-25T14:50:58.190Z,8.85
2024-01-25T14:53:31.241Z,14.77
2024-01-25T14:55:58.042Z,9.18
2024-01-25T14:58:31.190Z,8.15
2024-01-25T15:00:58.049Z,10.15
2024-01-25T15:03:25.547Z,12.48
2024-01-25T15:05:59.272Z,15.43
2024-01-25T15:08:32.211Z,11.25
2024-01-25T15:11:05.245Z,13.48
2024-01-25T15:13:32.018Z,16.50
2024-01-25T15:16:05.489Z,17.08
2024-01-25T15:18:39.348Z,15.82
2024-01-25T15:21:13.333Z,14.02
2024-01-25T15:23:40.130Z,19.85
2024-01-25T15:26:06.904Z,14.35
2024-01-25T15:28:42.317Z,12.13
2024-01-25T15:31:18.366Z,10.25
2024-01-25T15:33:55.065Z,9.00
2024-01-25T15:36:23.296Z,10.82
2024-01-25T15:38:57.282Z,12.15
2024-01-25T15:41:24.139Z,15.27
2024-01-25T15:43:50.988Z,21.92
2024-01-25T15:46:25.343Z,17.98
2024-01-25T15:48:56.001Z,19.25
2024-01-25T15:51:31.322Z,18.15
2024-01-25T15:53:58.240Z,18.15
2024-01-25T15:56:31.335Z,13.30
2024-01-25T15:58:58.035Z,17.08
2024-01-25T16:01:31.312Z,18.45
2024-01-25T16:03:58.226Z,23.95
2024-01-25T16:06:31.330Z,14.07
2024-01-25T16:09:02.880Z,35.40
2024-01-25T16:11:29.795Z,23.08
2024-01-25T16:14:03.455Z,27.42
2024-01-25T16:16:30.550Z,22.02
2024-01-25T16:19:05.547Z,20.98
2024-01-25T16:21:32.628Z,18.02
2024-01-25T16:24:00.455Z,20.90
2024-01-25T16:26:33.327Z,15.18
2024-01-25T16:29:00.576Z,16.90
2024-01-25T16:31:34.337Z,27.88
2024-01-25T16:34:01.241Z,20.50
2024-01-25T16:36:28.240Z,17.23
2024-01-25T16:39:01.852Z,23.45
2024-01-25T16:41:28.998Z,16.50
2024-01-25T16:43:55.822Z,14.55
2024-01-25T16:46:29.395Z,17.33
2024-01-25T16:48:56.190Z,23.42
2024-01-25T16:51:29.713Z,20.92
2024-01-25T16:53:56.712Z,29.50
2024-01-25T16:56:30.401Z,29.77
2024-01-25T16:58:57.177Z,23.17
2024-01-25T17:01:23.999Z,22.70
2024-01-25T17:03:57.553Z,19.85
2024-01-25T17:06:24.631Z,22.17
2024-01-25T17:08:51.457Z,19.27
2024-01-25T17:11:25.449Z,18.00
2024-01-25T17:13:58.384Z,21.90
2024-01-25T17:16:25.194Z,18.30
2024-01-25T17:18:59.472Z,25.30
2024-01-25T17:21:28.370Z,42.58
2024-01-25T17:24:02.397Z,37.00
2024-01-25T17:26:29.287Z,30.88
2024-01-25T17:28:56.616Z,30.40
2024-01-25T17:31:29.441Z,24.92
2024-01-25T17:33:56.654Z,24.65
2024-01-25T17:36:31.508Z,26.85
2024-01-25T17:38:58.301Z,35.90
2024-01-25T17:41:31.450Z,33.70
2024-01-25T17:43:58.483Z,33.45
2024-01-25T17:46:25.356Z,26.15
2024-01-25T17:48:58.551Z,38.42
2024-01-25T17:51:31.471Z,36.38
2024-01-25T17:53:58.590Z,36.50
2024-01-25T17:56:25.545Z,32.67
2024-01-25T17:58:58.612Z,34.58
2024-01-25T18:01:25.426Z,37.53
2024-01-25T18:03:58.483Z,39.55
2024-01-25T18:06:25.376Z,30.58
2024-01-25T18:08:52.144Z,43.22
2024-01-25T18:11:25.504Z,31.75
2024-01-25T18:13:52.317Z,34.20
2024-01-25T18:16:29.616Z,34.80
2024-01-25T18:18:56.975Z,31.92
2024-01-25T18:21:32.578Z,35.17
2024-01-25T18:24:01.865Z,31.35
2024-01-25T18:26:35.518Z,28.85
2024-01-25T18:29:03.474Z,28.75
2024-01-25T18:31:36.530Z,38.92
2024-01-25T18:34:09.734Z,37.65
2024-01-25T18:36:38.752Z,38.55
2024-01-25T18:39:12.572Z,31.58
2024-01-25T18:41:45.585Z,32.83
2024-01-25T18:44:18.556Z,36.90
2024-01-25T18:46:45.271Z,37.08
2024-01-25T18:49:18.635Z,38.20
2024-01-25T18:51:52.708Z,39.63
2024-01-25T18:54:26.563Z,40.30
2024-01-25T18:56:53.626Z,37.33
2024-01-25T18:59:20.669Z,40.63
2024-01-25T19:01:54.596Z,41.95
2024-01-25T19:04:22.162Z,36.72
2024-01-25T19:07:02.636Z,32.20
2024-01-25T19:09:35.636Z,36.40
2024-01-25T19:12:02.789Z,36.03
2024-01-25T19:14:29.618Z,35.72
2024-01-25T19:17:02.641Z,39.40
2024-01-25T19:19:35.764Z,36.95
2024-01-25T19:22:02.674Z,33.92
2024-01-25T19:24:35.767Z,41.60
2024-01-25T19:27:02.658Z,40.95
2024-01-25T19:29:35.643Z,37.95
2024-01-25T19:32:08.597Z,36.85
2024-01-25T19:34:35.710Z,35.15
2024-01-25T19:37:02.688Z,42.60
2024-01-25T19:39:35.713Z,41.42
2024-01-25T19:42:02.599Z,33.22
2024-01-25T19:44:36.030Z,35.72
2024-01-25T19:47:03.028Z,37.95
2024-01-25T19:49:36.697Z,33.65
2024-01-25T19:52:04.840Z,42.35
2024-01-25T19:54:38.648Z,38.58
2024-01-25T19:57:06.985Z,44.78
2024-01-25T19:59:40.632Z,45.53
2024-01-25T20:02:07.959Z,39.33
2024-01-25T20:04:42.685Z,40.75
2024-01-25T20:07:16.788Z,38.72
2024-01-25T20:09:43.755Z,39.05
2024-01-25T20:12:10.532Z,44.40
2024-01-25T20:14:43.652Z,43.70
2024-01-25T20:17:11.515Z,44.90
2024-01-25T20:19:44.880Z,45.92
2024-01-25T20:22:12.185Z,45.97
2024-01-25T20:24:45.858Z,44.10
2024-01-25T20:27:19.770Z,47.55
2024-01-25T20:29:46.533Z,39.88
2024-01-25T20:32:19.726Z,43.03
2024-01-25T20:34:54.146Z,48.20
2024-01-25T20:37:21.251Z,40.80
2024-01-25T20:39:54.825Z,45.70
2024-01-25T20:42:22.220Z,38.42
2024-01-25T20:44:55.757Z,41.95
2024-01-25T20:47:22.563Z,40.13
2024-01-25T20:49:55.946Z,44.92
2024-01-25T20:52:22.771Z,34.88
2024-01-25T20:54:57.780Z,40.03
2024-01-25T20:57:24.608Z,39.47
2024-01-25T20:59:51.329Z,44.38
2024-01-25T21:02:25.766Z,41.15
2024-01-25T21:04:53.111Z,41.88
2024-01-25T21:07:26.785Z,39.40
2024-01-25T21:09:53.841Z,42.03
2024-01-25T21:12:27.862Z,44.70
2024-01-25T21:14:54.869Z,42.30
2024-01-25T21:17:21.630Z,43.70
2024-01-25T21:20:01.844Z,37.85
2024-01-25T21:22:28.736Z,42.35
2024-01-25T21:24:55.683Z,36.80
2024-01-25T21:27:28.860Z,38.88
2024-01-25T21:30:05.800Z,45.10
2024-01-25T21:32:38.968Z,43.38
2024-01-25T21:35:12.961Z,39.63
2024-01-25T21:37:39.739Z,36.97
2024-01-25T21:40:13.917Z,37.35
2024-01-25T21:42:40.777Z,43.38
2024-01-25T21:45:15.194Z,43.90
2024-01-25T21:47:42.763Z,39.10
2024-01-25T21:50:16.883Z,45.15
2024-01-25T21:52:43.868Z,43.47
2024-01-25T21:55:13.814Z,40.00
2024-01-25T21:57:57.193Z,42.15
2024-01-25T22:00:25.696Z,42.60
2024-01-25T22:02:58.881Z,36.75
2024-01-25T22:05:26.378Z,37.88
2024-01-25T22:07:59.897Z,40.55
2024-01-25T22:10:27.570Z,39.92
2024-01-25T22:13:01.017Z,34.95
2024-01-25T22:15:27.816Z,34.92
2024-01-25T22:18:00.881Z,38.30
2024-01-25T22:20:27.634Z,38.95
2024-01-25T22:22:54.468Z,37.33
2024-01-25T22:25:27.901Z,42.95
2024-01-25T22:27:58.234Z,37.30
2024-01-25T22:30:25.458Z,42.85
2024-01-25T22:32:58.950Z,37.05
2024-01-25T22:35:25.668Z,37.60
2024-01-25T22:37:58.975Z,40.05
2024-01-25T22:40:31.908Z,43.42
2024-01-25T22:42:58.754Z,38.20
2024-01-25T22:45:31.990Z,34.80
2024-01-25T22:47:58.776Z,35.80
2024-01-25T22:50:31.935Z,31.58
2024-01-25T22:53:04.993Z,33.95
2024-01-25T22:55:31.869Z,30.67
2024-01-25T22:58:05.001Z,30.02
2024-01-25T23:00:32.533Z,27.55
2024-01-25T23:03:07.004Z,27.20
2024-01-25T23:05:34.237Z,28.27
2024-01-25T23:08:01.315Z,32.67
2024-01-25T23:10:34.935Z,31.42
2024-01-25T23:13:10.024Z,29.58
2024-01-25T23:15:36.878Z,30.02
2024-01-25T23:18:04.002Z,30.52
2024-01-25T23:20:37.017Z,31.42
2024-01-25T23:23:04.448Z,30.58
2024-01-25T23:25:37.983Z,25.73
2024-01-25T23:28:05.084Z,25.55
2024-01-25T23:30:31.935Z,26.05
2024-01-25T23:33:05.166Z,23.95
2024-01-25T23:35:32.423Z,24.95
2024-01-25T23:37:59.224Z,21.73
2024-01-25T23:40:32.993Z,23.88
2024-01-25T23:42:59.880Z,20.67
2024-01-25T23:45:26.954Z,16.13
2024-01-25T23:48:00.092Z,20.70
2024-01-25T23:50:27.509Z,21.23
2024-01-25T23:53:01.030Z,19.00
2024-01-25T23:55:27.942Z,18.80
2024-01-25T23:58:01.131Z,18.60
